Wetterdaten: Woche 01.07.13 - 07.07.13 (KW27)
Datum Zeit Temp. A. Feuchte A. Luftdruck Regen Wind Richtung Taupunkt Windchill Windben
01.07.2013 00:00 14,6 C 65 % 1020,5 hPa 0,0 l/m 0,6 km/h N 8,1 C 14,6 C 5,6 km/h
01.07.2013 01:00 13,6 C 69 % 1020,5 hPa 0,0 l/m 0,4 km/h N 7,9 C 13,6 C 3,6 km/h
01.07.2013 02:00 12,3 C 73 % 1020,5 hPa 0,0 l/m 0,0 km/h N 7,5 C 12,3 C 0,4 km/h
01.07.2013 03:00 11,1 C 77 % 1020,3 hPa 0,0 l/m 0,1 km/h N 7,1 C 11,1 C 2,0 km/h
01.07.2013 04:00 11,2 C 76 % 1020,1 hPa 0,0 l/m 0,0 km/h N 7,0 C 11,2 C 2,0 km/h
01.07.2013 05:00 10,2 C 79 % 1020,1 hPa 0,0 l/m 0,0 km/h N 6,7 C 10,2 C 0,8 km/h
01.07.2013 06:00 10,6 C 81 % 1020,2 hPa 0,0 l/m 0,0 km/h N 7,5 C 10,6 C 0,8 km/h
01.07.2013 07:00 14,0 C 71 % 1020,3 hPa 0,0 l/m 2,6 km/h N 8,8 C 14,0 C 10,5 km/h
01.07.2013 08:00 17,3 C 58 % 1020,4 hPa 0,0 l/m 4,2 km/h N 9,0 C 17,3 C 14,5 km/h
01.07.2013 09:00 18,5 C 54 % 1020,2 hPa 0,0 l/m 6,5 km/h N 9,0 C 18,3 C 19,3 km/h
01.07.2013 10:00 19,4 C 52 % 1020,0 hPa 0,0 l/m 5,4 km/h N 9,2 C 19,4 C 17,3 km/h
01.07.2013 11:00 19,9 C 53 % 1019,9 hPa 0,0 l/m 5,0 km/h N 9,9 C 19,9 C 16,1 km/h
01.07.2013 12:00 21,1 C 49 % 1019,6 hPa 0,0 l/m 4,4 km/h N 9,9 C 21,1 C 13,7 km/h
01.07.2013 13:00 21,9 C 47 % 1019,2 hPa 0,0 l/m 3,9 km/h N 10,1 C 21,9 C 14,5 km/h
01.07.2013 14:00 23,0 C 47 % 1018,7 hPa 0,0 l/m 4,9 km/h N 11,1 C 23,0 C 12,9 km/h
01.07.2013 15:00 23,6 C 45 % 1018,1 hPa 0,0 l/m 4,3 km/h N 11,1 C 23,6 C 14,5 km/h
01.07.2013 16:00 23,5 C 45 % 1017,9 hPa 0,0 l/m 1,6 km/h N 10,8 C 23,5 C 10,1 km/h
01.07.2013 17:00 24,9 C 43 % 1017,7 hPa 0,0 l/m 0,8 km/h N 11,4 C 24,9 C 6,0 km/h
01.07.2013 18:00 24,7 C 43 % 1017,4 hPa 0,0 l/m 1,5 km/h N 11,2 C 24,7 C 8,4 km/h
01.07.2013 19:00 24,1 C 45 % 1017,3 hPa 0,0 l/m 0,5 km/h N 11,3 C 24,1 C 5,6 km/h
01.07.2013 20:00 22,1 C 50 % 1017,5 hPa 0,0 l/m 2,2 km/h N 11,2 C 22,1 C 10,9 km/h
01.07.2013 21:00 20,0 C 57 % 1017,7 hPa 0,0 l/m 0,1 km/h N 11,2 C 20,0 C 0,8 km/h
01.07.2013 22:00 16,7 C 69 % 1018,2 hPa 0,0 l/m 0,0 km/h N 10,9 C 16,7 C 0,0 km/h
01.07.2013 23:00 14,7 C 75 % 1018,0 hPa 0,0 l/m 0,0 km/h N 10,3 C 14,7 C 0,0 km/h
02.07.2013 00:00 13,5 C 80 % 1018,0 hPa 0,0 l/m 0,0 km/h N 10,0 C 13,5 C 0,0 km/h
02.07.2013 01:00 12,5 C 82 % 1017,5 hPa 0,0 l/m 0,0 km/h N 9,5 C 12,5 C 0,0 km/h
02.07.2013 02:00 11,8 C 83 % 1017,3 hPa 0,0 l/m 0,0 km/h N 9,1 C 11,8 C 0,0 km/h
02.07.2013 03:00 11,3 C 84 % 1017,0 hPa 0,0 l/m 0,0 km/h N 8,6 C 11,3 C 0,4 km/h
02.07.2013 04:00 10,9 C 84 % 1017,0 hPa 0,0 l/m 0,0 km/h N 8,3 C 10,9 C 0,0 km/h
02.07.2013 05:00 10,6 C 83 % 1017,0 hPa 0,0 l/m 0,0 km/h N 7,8 C 10,6 C 0,0 km/h
02.07.2013 06:00 11,1 C 81 % 1017,0 hPa 0,0 l/m 0,0 km/h N 8,1 C 11,1 C 0,0 km/h
02.07.2013 07:00 13,3 C 78 % 1017,1 hPa 0,0 l/m 0,2 km/h N 9,6 C 13,3 C 3,2 km/h
02.07.2013 08:00 17,4 C 76 % 1017,0 hPa 0,0 l/m 1,2 km/h N 13,1 C 17,4 C 6,1 km/h
02.07.2013 09:00 20,6 C 66 % 1016,9 hPa 0,0 l/m 2,7 km/h N 14,0 C 20,6 C 9,7 km/h
02.07.2013 10:00 22,8 C 62 % 1016,9 hPa 0,0 l/m 2,4 km/h N 15,2 C 22,8 C 9,6 km/h
02.07.2013 11:00 24,5 C 60 % 1016,7 hPa 0,0 l/m 1,9 km/h N 16,2 C 24,5 C 8,4 km/h
02.07.2013 12:00 25,9 C 55 % 1016,3 hPa 0,0 l/m 1,4 km/h N 16,2 C 25,9 C 6,4 km/h
02.07.2013 13:00 26,7 C 53 % 1015,8 hPa 0,0 l/m 2,0 km/h N 16,2 C 26,7 C 7,2 km/h
02.07.2013 14:00 28,0 C 47 % 1015,4 hPa 0,0 l/m 2,0 km/h N 15,6 C 28,0 C 10,1 km/h
02.07.2013 15:00 28,3 C 49 % 1015,0 hPa 0,0 l/m 2,1 km/h N 16,5 C 28,3 C 12,5 km/h
02.07.2013 16:00 27,5 C 49 % 1014,8 hPa 0,0 l/m 3,1 km/h N 15,8 C 27,5 C 14,1 km/h
02.07.2013 17:00 27,2 C 48 % 1014,3 hPa 0,0 l/m 5,2 km/h N 15,3 C 27,2 C 17,3 km/h
02.07.2013 18:00 27,2 C 49 % 1014,0 hPa 0,0 l/m 5,7 km/h N 15,5 C 27,2 C 16,1 km/h
02.07.2013 19:00 26,7 C 50 % 1014,0 hPa 0,0 l/m 5,2 km/h N 15,3 C 26,7 C 16,5 km/h
02.07.2013 20:00 25,0 C 54 % 1013,8 hPa 0,0 l/m 4,4 km/h N 14,9 C 25,0 C 13,3 km/h
02.07.2013 21:00 22,9 C 61 % 1014,0 hPa 0,0 l/m 0,4 km/h N 15,0 C 22,9 C 3,2 km/h
02.07.2013 22:00 20,7 C 70 % 1014,2 hPa 0,0 l/m 0,1 km/h N 14,9 C 20,7 C 0,8 km/h
02.07.2013 23:00 18,2 C 76 % 1014,3 hPa 0,0 l/m 0,0 km/h N 13,9 C 18,2 C 0,4 km/h
03.07.2013 00:00 16,6 C 81 % 1014,3 hPa 0,0 l/m 0,1 km/h N 13,3 C 16,6 C 1,2 km/h
03.07.2013 01:00 15,3 C 83 % 1014,3 hPa 0,0 l/m 0,0 km/h N 12,5 C 15,3 C 0,0 km/h
03.07.2013 02:00 14,6 C 83 % 1013,8 hPa 0,0 l/m 0,0 km/h N 11,8 C 14,6 C 0,0 km/h
03.07.2013 03:00 14,0 C 83 % 1013,5 hPa 0,0 l/m 0,0 km/h N 11,1 C 14,0 C 0,4 km/h
03.07.2013 04:00 13,9 C 81 % 1013,3 hPa 0,0 l/m 0,0 km/h N 10,7 C 13,9 C 0,5 km/h
03.07.2013 05:00 13,7 C 81 % 1013,2 hPa 0,0 l/m 0,0 km/h N 10,4 C 13,7 C 0,4 km/h
03.07.2013 06:00 14,3 C 79 % 1013,3 hPa 0,0 l/m 0,0 km/h N 10,7 C 14,3 C 0,0 km/h
03.07.2013 07:00 15,8 C 79 % 1013,2 hPa 0,0 l/m 0,1 km/h N 12,2 C 15,8 C 2,4 km/h
03.07.2013 08:00 19,3 C 79 % 1013,1 hPa 0,0 l/m 0,8 km/h N 15,5 C 19,3 C 5,2 km/h
03.07.2013 09:00 22,7 C 68 % 1013,0 hPa 0,0 l/m 1,5 km/h N 16,4 C 22,7 C 7,2 km/h
03.07.2013 10:00 24,4 C 64 % 1012,7 hPa 0,0 l/m 4,7 km/h N 17,1 C 24,2 C 14,1 km/h
03.07.2013 11:00 26,2 C 56 % 1012,3 hPa 0,0 l/m 11,1 km/h N 16,7 C 25,3 C 25,4 km/h
03.07.2013 12:00 26,4 C 54 % 1012,2 hPa 0,0 l/m 13,2 km/h N 16,4 C 25,2 C 28,2 km/h
03.07.2013 13:00 27,3 C 51 % 1011,9 hPa 0,0 l/m 13,3 km/h N 16,1 C 26,2 C 26,5 km/h
03.07.2013 14:00 28,1 C 48 % 1011,5 hPa 0,0 l/m 13,3 km/h N 15,9 C 27,3 C 31,0 km/h
03.07.2013 15:00 28,2 C 46 % 1011,1 hPa 0,0 l/m 13,8 km/h N 15,4 C 27,3 C 30,2 km/h
03.07.2013 16:00 28,0 C 45 % 1010,6 hPa 0,0 l/m 13,2 km/h N 14,7 C 27,1 C 28,2 km/h
03.07.2013 17:00 28,1 C 44 % 1010,3 hPa 0,0 l/m 11,8 km/h N 14,5 C 27,3 C 26,1 km/h
03.07.2013 18:00 27,6 C 42 % 1010,5 hPa 0,0 l/m 10,0 km/h N 13,4 C 27,1 C 24,5 km/h
03.07.2013 19:00 26,4 C 46 % 1010,9 hPa 0,0 l/m 7,9 km/h N 13,6 C 26,1 C 20,9 km/h
03.07.2013 20:00 25,0 C 52 % 1011,5 hPa 0,0 l/m 2,1 km/h N 14,2 C 25,0 C 7,7 km/h
03.07.2013 21:00 22,6 C 62 % 1012,8 hPa 0,0 l/m 3,9 km/h N 14,8 C 22,4 C 14,5 km/h
03.07.2013 22:00 21,2 C 71 % 1013,8 hPa 0,0 l/m 3,9 km/h N 15,7 C 21,2 C 13,3 km/h
03.07.2013 23:00 20,0 C 76 % 1014,2 hPa 0,0 l/m 2,9 km/h N 15,6 C 20,0 C 12,1 km/h
04.07.2013 00:00 19,7 C 76 % 1014,4 hPa 0,0 l/m 3,9 km/h N 15,4 C 19,7 C 12,1 km/h
04.07.2013 01:00 19,8 C 74 % 1014,7 hPa 0,0 l/m 3,9 km/h N 15,1 C 19,8 C 14,9 km/h
04.07.2013 02:00 19,8 C 75 % 1015,1 hPa 0,0 l/m 3,3 km/h N 15,3 C 19,8 C 15,3 km/h
04.07.2013 03:00 19,3 C 77 % 1015,1 hPa 0,0 l/m 3,4 km/h N 15,1 C 19,3 C 15,3 km/h
04.07.2013 04:00 19,0 C 77 % 1015,4 hPa 0,0 l/m 1,7 km/h N 14,9 C 19,0 C 10,1 km/h
04.07.2013 05:00 18,8 C 78 % 1015,8 hPa 0,0 l/m 3,0 km/h N 14,8 C 18,8 C 11,7 km/h
04.07.2013 06:00 19,1 C 77 % 1016,4 hPa 0,0 l/m 1,6 km/h N 15,0 C 19,1 C 7,6 km/h
04.07.2013 07:00 20,1 C 75 % 1016,7 hPa 0,0 l/m 1,2 km/h N 15,5 C 20,1 C 8,0 km/h
04.07.2013 08:00 22,0 C 70 % 1017,3 hPa 0,0 l/m 2,8 km/h N 16,2 C 22,0 C 13,7 km/h
04.07.2013 09:00 22,5 C 70 % 1017,8 hPa 0,0 l/m 4,0 km/h N 16,6 C 22,4 C 14,5 km/h
04.07.2013 10:00 23,0 C 68 % 1018,1 hPa 0,0 l/m 10,0 km/h N 16,8 C 22,0 C 24,1 km/h
04.07.2013 11:00 23,8 C 65 % 1018,3 hPa 0,0 l/m 8,7 km/h N 16,7 C 23,2 C 22,9 km/h
04.07.2013 12:00 24,5 C 64 % 1018,4 hPa 0,0 l/m 7,3 km/h N 17,1 C 24,3 C 20,1 km/h
04.07.2013 13:00 24,9 C 62 % 1018,4 hPa 0,0 l/m 8,3 km/h N 17,1 C 24,4 C 20,5 km/h
04.07.2013 14:00 25,8 C 60 % 1018,0 hPa 0,0 l/m 7,3 km/h N 17,5 C 25,6 C 21,3 km/h
04.07.2013 15:00 25,9 C 58 % 1017,9 hPa 0,0 l/m 6,9 km/h N 17,0 C 25,7 C 20,1 km/h
04.07.2013 16:00 26,3 C 57 % 1017,7 hPa 0,0 l/m 7,0 km/h N 17,1 C 26,1 C 18,9 km/h
04.07.2013 17:00 26,5 C 56 % 1017,8 hPa 0,0 l/m 7,0 km/h N 16,9 C 26,4 C 18,9 km/h
04.07.2013 18:00 26,5 C 56 % 1017,8 hPa 0,0 l/m 5,2 km/h N 17,1 C 26,5 C 13,3 km/h
04.07.2013 19:00 26,3 C 56 % 1018,1 hPa 0,0 l/m 3,6 km/h N 16,8 C 26,3 C 9,6 km/h
04.07.2013 20:00 24,9 C 59 % 1018,6 hPa 0,0 l/m 1,5 km/h N 16,3 C 24,9 C 5,6 km/h
04.07.2013 21:00 23,0 C 65 % 1019,3 hPa 0,0 l/m 5,1 km/h N 16,0 C 23,0 C 14,5 km/h
04.07.2013 22:00 22,0 C 68 % 1019,9 hPa 0,0 l/m 4,2 km/h N 15,8 C 22,0 C 10,9 km/h
04.07.2013 23:00 21,2 C 69 % 1020,1 hPa 0,0 l/m 2,5 km/h N 15,3 C 21,2 C 12,1 km/h
05.07.2013 00:00 20,6 C 72 % 1020,4 hPa 0,0 l/m 2,4 km/h N 15,3 C 20,6 C 11,6 km/h
05.07.2013 01:00 20,7 C 72 % 1020,5 hPa 0,0 l/m 4,1 km/h N 15,4 C 20,7 C 14,1 km/h
05.07.2013 02:00 20,6 C 73 % 1020,6 hPa 0,0 l/m 4,1 km/h N 15,5 C 20,6 C 13,7 km/h
05.07.2013 03:00 20,1 C 75 % 1020,7 hPa 0,0 l/m 3,9 km/h N 15,5 C 20,1 C 13,3 km/h
05.07.2013 04:00 19,8 C 76 % 1020,9 hPa 0,0 l/m 5,8 km/h N 15,5 C 19,8 C 18,5 km/h
05.07.2013 05:00 19,8 C 77 % 1021,2 hPa 0,0 l/m 5,7 km/h N 15,5 C 19,8 C 15,3 km/h
05.07.2013 06:00 20,0 C 77 % 1021,5 hPa 0,0 l/m 7,1 km/h N 15,8 C 19,7 C 17,7 km/h
05.07.2013 07:00 20,8 C 76 % 1021,8 hPa 0,0 l/m 8,1 km/h N 16,3 C 20,2 C 18,9 km/h
05.07.2013 08:00 22,0 C 72 % 1022,2 hPa 0,0 l/m 9,0 km/h N 16,5 C 21,1 C 20,9 km/h
05.07.2013 09:00 23,1 C 67 % 1022,4 hPa 0,0 l/m 8,6 km/h N 16,5 C 22,4 C 22,5 km/h
05.07.2013 10:00 23,9 C 64 % 1022,3 hPa 0,0 l/m 10,1 km/h N 16,7 C 22,9 C 24,1 km/h
05.07.2013 11:00 24,6 C 63 % 1022,3 hPa 0,0 l/m 9,9 km/h N 17,0 C 23,8 C 22,5 km/h
05.07.2013 12:00 25,3 C 61 % 1022,2 hPa 0,0 l/m 9,4 km/h N 17,2 C 24,7 C 22,5 km/h
05.07.2013 13:00 26,4 C 55 % 1021,8 hPa 0,0 l/m 9,7 km/h N 16,6 C 25,8 C 23,3 km/h
05.07.2013 14:00 26,7 C 55 % 1021,5 hPa 0,0 l/m 8,3 km/h N 16,7 C 26,3 C 20,5 km/h
05.07.2013 15:00 27,0 C 52 % 1021,5 hPa 0,0 l/m 10,4 km/h N 16,2 C 26,3 C 25,3 km/h
05.07.2013 16:00 26,5 C 53 % 1021,3 hPa 0,0 l/m 11,1 km/h N 16,1 C 25,7 C 24,5 km/h
05.07.2013 17:00 25,1 C 62 % 1021,2 hPa 0,0 l/m 11,7 km/h N 17,3 C 24,0 C 26,5 km/h
05.07.2013 18:00 24,4 C 64 % 1021,7 hPa 0,0 l/m 8,4 km/h N 17,0 C 23,9 C 22,5 km/h
05.07.2013 19:00 22,9 C 68 % 1022,2 hPa 0,0 l/m 7,0 km/h N 16,6 C 22,6 C 20,1 km/h
05.07.2013 20:00 21,8 C 74 % 1022,7 hPa 0,0 l/m 6,9 km/h N 17,0 C 21,5 C 18,5 km/h
05.07.2013 21:00 21,3 C 75 % 1023,5 hPa 0,0 l/m 6,3 km/h N 16,7 C 21,2 C 17,7 km/h
05.07.2013 22:00 21,2 C 75 % 1024,1 hPa 0,0 l/m 5,1 km/h N 16,6 C 21,2 C 17,7 km/h
05.07.2013 23:00 21,1 C 75 % 1024,1 hPa 0,0 l/m 6,4 km/h N 16,5 C 21,0 C 18,9 km/h
06.07.2013 00:00 20,8 C 75 % 1024,1 hPa 0,0 l/m 8,1 km/h N 16,2 C 20,2 C 19,7 km/h
06.07.2013 01:00 20,5 C 76 % 1024,1 hPa 0,0 l/m 7,1 km/h N 16,1 C 20,1 C 21,3 km/h
06.07.2013 02:00 20,0 C 78 % 1024,1 hPa 0,0 l/m 6,9 km/h N 16,0 C 19,7 C 21,3 km/h
06.07.2013 03:00 19,6 C 79 % 1023,9 hPa 0,0 l/m 6,3 km/h N 15,9 C 19,6 C 18,5 km/h
06.07.2013 04:00 19,4 C 79 % 1024,0 hPa 0,0 l/m 6,2 km/h N 15,7 C 19,3 C 16,9 km/h
06.07.2013 05:00 19,2 C 79 % 1024,1 hPa 0,0 l/m 5,6 km/h N 15,5 C 19,2 C 16,5 km/h
06.07.2013 06:00 19,5 C 79 % 1024,4 hPa 0,0 l/m 5,1 km/h N 15,6 C 19,5 C 16,1 km/h
06.07.2013 07:00 20,0 C 78 % 1024,8 hPa 0,0 l/m 4,9 km/h N 16,0 C 20,0 C 16,5 km/h
06.07.2013 08:00 20,3 C 77 % 1025,0 hPa 0,0 l/m 4,3 km/h N 16,2 C 20,3 C 14,1 km/h
06.07.2013 09:00 21,0 C 76 % 1024,9 hPa 0,0 l/m 6,8 km/h N 16,6 C 20,6 C 18,5 km/h
06.07.2013 10:00 21,3 C 75 % 1025,0 hPa 0,0 l/m 6,3 km/h N 16,8 C 21,3 C 17,3 km/h
06.07.2013 11:00 22,0 C 75 % 1024,9 hPa 0,0 l/m 7,5 km/h N 17,4 C 21,6 C 20,1 km/h
06.07.2013 12:00 23,1 C 70 % 1024,9 hPa 0,0 l/m 6,8 km/h N 17,3 C 22,9 C 19,3 km/h
06.07.2013 13:00 24,7 C 63 % 1024,5 hPa 0,0 l/m 7,5 km/h N 17,3 C 24,4 C 19,3 km/h
06.07.2013 14:00 25,5 C 60 % 1024,0 hPa 0,0 l/m 6,7 km/h N 17,3 C 25,4 C 17,3 km/h
06.07.2013 15:00 25,7 C 61 % 1023,5 hPa 0,0 l/m 6,2 km/h N 17,5 C 25,6 C 18,1 km/h
06.07.2013 16:00 25,5 C 61 % 1023,2 hPa 0,0 l/m 6,1 km/h N 17,4 C 25,5 C 16,5 km/h
06.07.2013 17:00 25,7 C 61 % 1023,0 hPa 0,0 l/m 7,1 km/h N 17,5 C 25,5 C 19,3 km/h
06.07.2013 18:00 25,7 C 62 % 1023,1 hPa 0,0 l/m 6,7 km/h N 17,8 C 25,6 C 19,7 km/h
06.07.2013 19:00 24,9 C 63 % 1023,5 hPa 0,0 l/m 6,0 km/h N 17,3 C 24,8 C 19,3 km/h
06.07.2013 20:00 23,6 C 66 % 1023,9 hPa 0,0 l/m 4,0 km/h N 16,7 C 23,6 C 12,9 km/h
06.07.2013 21:00 22,2 C 71 % 1024,8 hPa 0,0 l/m 1,7 km/h N 16,5 C 22,2 C 7,6 km/h
06.07.2013 22:00 21,1 C 74 % 1025,4 hPa 0,0 l/m 2,3 km/h N 16,3 C 21,1 C 8,4 km/h
06.07.2013 23:00 20,5 C 76 % 1025,5 hPa 0,0 l/m 2,7 km/h N 16,1 C 20,5 C 10,5 km/h
07.07.2013 00:00 20,0 C 77 % 1025,6 hPa 0,0 l/m 3,1 km/h N 15,9 C 20,0 C 10,9 km/h
07.07.2013 01:00 19,8 C 78 % 1025,5 hPa 0,0 l/m 3,5 km/h N 15,9 C 19,8 C 11,3 km/h
07.07.2013 02:00 19,4 C 79 % 1025,4 hPa 0,0 l/m 3,8 km/h N 15,6 C 19,4 C 14,5 km/h
07.07.2013 03:00 19,0 C 80 % 1025,1 hPa 0,0 l/m 3,3 km/h N 15,4 C 19,0 C 12,5 km/h
07.07.2013 04:00 18,6 C 80 % 1025,1 hPa 0,0 l/m 2,8 km/h N 15,1 C 18,6 C 8,4 km/h
07.07.2013 05:00 18,3 C 81 % 1025,1 hPa 0,0 l/m 2,7 km/h N 14,9 C 18,3 C 9,7 km/h
07.07.2013 06:00 18,5 C 80 % 1025,1 hPa 0,0 l/m 4,5 km/h N 15,0 C 18,5 C 12,5 km/h
07.07.2013 07:00 19,3 C 79 % 1025,3 hPa 0,0 l/m 4,5 km/h N 15,5 C 19,3 C 14,5 km/h
07.07.2013 08:00 20,4 C 75 % 1025,6 hPa 0,0 l/m 5,2 km/h N 15,8 C 20,4 C 15,3 km/h
07.07.2013 09:00 21,6 C 71 % 1025,7 hPa 0,0 l/m 4,8 km/h N 16,1 C 21,6 C 15,7 km/h
07.07.2013 10:00 22,5 C 70 % 1025,8 hPa 0,0 l/m 6,3 km/h N 16,6 C 22,3 C 16,9 km/h
07.07.2013 11:00 23,4 C 68 % 1026,0 hPa 0,0 l/m 5,6 km/h N 17,1 C 23,4 C 16,5 km/h
07.07.2013 12:00 24,3 C 67 % 1025,8 hPa 0,0 l/m 4,6 km/h N 17,7 C 24,3 C 16,1 km/h
07.07.2013 13:00 25,1 C 65 % 1025,5 hPa 0,0 l/m 5,1 km/h N 18,0 C 25,1 C 13,7 km/h
07.07.2013 14:00 25,7 C 61 % 1025,1 hPa 0,0 l/m 5,1 km/h N 17,5 C 25,7 C 17,7 km/h
07.07.2013 15:00 25,8 C 59 % 1024,7 hPa 0,0 l/m 6,2 km/h N 17,2 C 25,8 C 17,7 km/h
07.07.2013 16:00 26,3 C 57 % 1024,2 hPa 0,0 l/m 5,8 km/h N 17,1 C 26,3 C 16,9 km/h
07.07.2013 17:00 27,1 C 54 % 1023,8 hPa 0,0 l/m 7,1 km/h N 17,1 C 27,0 C 20,5 km/h
07.07.2013 18:00 26,6 C 54 % 1023,6 hPa 0,0 l/m 6,7 km/h N 16,5 C 26,4 C 18,1 km/h
07.07.2013 19:00 25,9 C 54 % 1023,8 hPa 0,0 l/m 5,5 km/h N 15,9 C 25,9 C 15,3 km/h
07.07.2013 20:00 24,6 C 57 % 1024,3 hPa 0,0 l/m 4,7 km/h N 15,5 C 24,6 C 14,5 km/h
07.07.2013 21:00 23,3 C 61 % 1025,0 hPa 0,0 l/m 2,2 km/h N 15,3 C 23,3 C 11,7 km/h
07.07.2013 22:00 22,2 C 64 % 1025,6 hPa 0,0 l/m 0,4 km/h N 15,1 C 22,2 C 4,8 km/h
07.07.2013 23:00 20,7 C 68 % 1025,8 hPa 0,0 l/m 0,7 km/h N 14,6 C 20,7 C 5,2 km/h
Min-Datum _ 01.07.13 03.07.13 03.07.13 - 01.07.13 - 01.07.13 01.07.13 01.07.13
_ Min-Zeit 05:30 18:30 17:30 - 01:45 - 05:15 05:30 01:45
Minimum _ 10,0 C 41 % 1010,2 hPa - 0,0 km/h - 6,5 C 10,0 C 0,0 km/h
Max-Datum _ 02.07.13 02.07.13 07.07.13 01.07.13 05.07.13 - 07.07.13 02.07.13 03.07.13
_ Max-Zeit 15:15 02:45 11:00 00:00 17:30 - 13:00 15:15 14:00
Maximum _ 28,6 C 84 % 1026,0 hPa 0,0 l/m 14,9 km/h
N
- 18,1 C 28,6 C 32,2 km/h
N
Durchschnitt _ 21,4 C 66 % 1019,5 hPa #0,0 l/m 4,5 km/h N 14,6 C 21,3 C 13,3 km/h